Terminal Aerodrome Forecast
Issued by NWS Charleston, WV

Current Version | Previous Version | Graphics & Text | Print | Product List | Glossary On
Versions: 1 2 3 4 5 6 7 8 9 10 11 12 13 14 15 16 17 18
000
FTUS41 KRLX 242324 AAA
TAFHTS
TAF AMD
KHTS 242324Z 2423/2524 28004KT P6SM SCT250
     FM250900 00000KT 4SM BR SCT250
     FM251200 VRB03KT P6SM FEW035
     FM251800 27007KT P6SM BKN035=

USA.gov is the U.S. government's official web portal to all federal, state and local government web resources and services.